Time;durP1;ratioP1;P1;durP2;ratioP2;P2;SDS_P1;SDS_P2;PMS_P1;PMS_P2;Temp;Humidity;BMP_temperature;BMP_pressure;BME280_temperature;BME280_humidity;BME280_pressure;Samples;Min_cycle;Max_cycle;Signal;HPM_P1;HPM_P2
2022/07/14 00:00:24;;;;;;;0.90;0.90;;;20.00;62.50;;;;;;5026680;28;20183;-62
2022/07/14 00:02:50;;;;;;;1.30;1.00;;;20.00;62.40;;;;;;5047732;28;20197;-62
2022/07/14 00:05:15;;;;;;;0.90;0.90;;;19.90;62.70;;;;;;5018619;28;20293;-62
2022/07/14 00:07:41;;;;;;;1.30;1.20;;;19.90;62.60;;;;;;5045714;28;20202;-62
2022/07/14 00:10:07;;;;;;;1.17;1.07;;;19.90;62.40;;;;;;5057604;28;20229;-62
2022/07/14 00:12:33;;;;;;;3.07;1.37;;;19.90;62.20;;;;;;5037557;28;20193;-62
2022/07/14 00:14:59;;;;;;;3.37;1.30;;;19.90;62.00;;;;;;5036965;28;20195;-62
2022/07/14 00:17:24;;;;;;;2.33;1.50;;;19.80;62.20;;;;;;5066306;28;20210;-62
2022/07/14 00:19:50;;;;;;;1.17;1.00;;;19.80;62.60;;;;;;5037269;28;20193;-62
2022/07/14 00:22:16;;;;;;;1.13;1.10;;;19.80;62.60;;;;;;5031665;28;20273;-62
2022/07/14 00:24:41;;;;;;;1.30;1.20;;;19.80;62.70;;;;;;5036974;28;20297;-62
2022/07/14 00:27:07;;;;;;;1.30;1.20;;;19.80;61.90;;;;;;5039019;28;20202;-62
2022/07/14 00:29:35;;;;;;;1.17;1.07;;;19.80;61.30;;;;;;5023028;28;20191;-62
2022/07/14 00:32:06;;;;;;;1.77;1.40;;;19.80;60.70;;;;;;5038947;28;20187;-62
2022/07/14 00:34:31;;;;;;;1.27;1.10;;;19.80;60.60;;;;;;5053411;28;20229;-62
2022/07/14 00:36:57;;;;;;;1.70;1.37;;;19.80;60.80;;;;;;5066580;28;20222;-62
2022/07/14 00:39:22;;;;;;;2.77;1.43;;;19.80;60.90;;;;;;5020570;28;20272;-62
2022/07/14 00:41:48;;;;;;;1.57;1.23;;;19.80;61.30;;;;;;5053378;28;20199;-63
2022/07/14 00:44:15;;;;;;;1.33;1.23;;;19.70;61.40;;;;;;5042885;28;20668;-62
2022/07/14 00:46:41;;;;;;;2.03;1.30;;;19.70;61.50;;;;;;5030729;28;20241;-62
2022/07/14 00:49:06;;;;;;;2.47;1.40;;;19.70;61.80;;;;;;5034744;28;20190;-62
2022/07/14 00:51:32;;;;;;;1.30;1.03;;;19.60;61.90;;;;;;5060570;28;20182;-62
2022/07/14 00:53:59;;;;;;;2.87;1.33;;;19.60;62.10;;;;;;5043374;28;20198;-62
2022/07/14 00:56:25;;;;;;;1.90;1.13;;;19.60;61.80;;;;;;5036885;28;20194;-62
2022/07/14 00:58:50;;;;;;;2.03;1.20;;;19.60;61.60;;;;;;5036676;28;20279;-62
2022/07/14 01:01:16;;;;;;;1.67;1.27;;;19.60;61.30;;;;;;5050892;28;20348;-62
2022/07/14 01:03:42;;;;;;;2.37;1.20;;;19.60;61.50;;;;;;5033552;28;20290;-62
2022/07/14 01:06:07;;;;;;;1.57;1.40;;;19.50;61.70;;;;;;5027311;28;20234;-62
2022/07/14 01:08:33;;;;;;;1.40;1.30;;;19.50;61.70;;;;;;5038459;28;20195;-62
2022/07/14 01:10:59;;;;;;;1.17;1.07;;;19.50;62.10;;;;;;5039934;28;20206;-62
2022/07/14 01:13:24;;;;;;;1.40;1.30;;;19.50;62.10;;;;;;5043093;28;20190;-62
2022/07/14 01:15:50;;;;;;;1.67;1.37;;;19.50;62.10;;;;;;5030540;28;20191;-62
2022/07/14 01:18:16;;;;;;;2.90;1.13;;;19.50;62.20;;;;;;5054937;28;20292;-62
2022/07/14 01:20:41;;;;;;;3.83;1.47;;;19.50;62.40;;;;;;5035103;28;20241;-62
2022/07/14 01:23:08;;;;;;;1.30;1.00;;;19.40;62.50;;;;;;5039101;28;20187;-62
2022/07/14 01:25:33;;;;;;;1.73;1.40;;;19.50;62.60;;;;;;5030653;28;20198;-62
2022/07/14 01:27:59;;;;;;;1.80;1.30;;;19.40;62.90;;;;;;5059074;28;20193;-62
2022/07/14 01:30:26;;;;;;;0.90;0.90;;;19.40;62.60;;;;;;5037858;28;20714;-62
2022/07/14 01:32:52;;;;;;;2.30;1.30;;;19.40;62.70;;;;;;5072062;28;20213;-62
2022/07/14 01:35:17;;;;;;;1.57;1.23;;;19.30;63.30;;;;;;5040255;28;20194;-62
2022/07/14 01:37:43;;;;;;;2.43;1.50;;;19.40;62.90;;;;;;5019916;28;20214;-62
2022/07/14 01:40:09;;;;;;;1.87;1.30;;;19.40;62.90;;;;;;5030786;28;20214;-62
2022/07/14 01:42:35;;;;;;;1.17;1.13;;;19.40;62.70;;;;;;5029128;28;20185;-62
2022/07/14 01:45:02;;;;;;;2.63;1.27;;;19.40;63.10;;;;;;5021221;28;20216;-62
2022/07/14 01:47:27;;;;;;;1.97;1.13;;;19.40;63.50;;;;;;5070282;28;20191;-62
2022/07/14 01:49:53;;;;;;;3.10;1.20;;;19.40;63.80;;;;;;5046382;28;20205;-62
2022/07/14 01:52:19;;;;;;;2.63;1.53;;;19.30;63.70;;;;;;5020501;28;20205;-62
2022/07/14 01:54:45;;;;;;;1.93;1.20;;;19.30;63.80;;;;;;5031450;28;20562;-62
2022/07/14 01:57:12;;;;;;;1.27;1.17;;;19.30;63.80;;;;;;5035905;28;20198;-62
2022/07/14 01:59:38;;;;;;;1.60;1.50;;;19.20;63.20;;;;;;5065772;28;20214;-62
2022/07/14 02:02:03;;;;;;;1.87;1.43;;;19.20;63.10;;;;;;5021920;28;20214;-62
2022/07/14 02:04:29;;;;;;;1.17;1.07;;;19.00;63.20;;;;;;5052118;28;20174;-62
2022/07/14 02:06:55;;;;;;;1.37;1.27;;;19.00;63.50;;;;;;5035073;28;20234;-62
2022/07/14 02:09:22;;;;;;;1.40;1.17;;;19.10;63.60;;;;;;5052275;28;20191;-62
2022/07/14 02:14:33;;;;;;;2.73;1.60;;;19.20;63.60;;;;;;5048329;28;20683;-62
2022/07/14 02:17:00;;;;;;;1.87;1.53;;;19.20;64.00;;;;;;5044711;28;20225;-62
2022/07/14 02:19:26;;;;;;;1.70;1.40;;;19.20;64.20;;;;;;5037172;28;20226;-62
2022/07/14 02:21:53;;;;;;;2.80;1.40;;;19.10;64.20;;;;;;5035371;28;20186;-62
2022/07/14 02:24:20;;;;;;;1.30;1.10;;;19.20;64.00;;;;;;5036452;28;20237;-62
2022/07/14 02:26:46;;;;;;;2.17;1.60;;;19.10;64.20;;;;;;5037073;28;20186;-62
2022/07/14 02:29:12;;;;;;;3.53;1.53;;;19.10;64.20;;;;;;5068940;28;20186;-62
2022/07/14 02:31:38;;;;;;;1.87;1.30;;;19.10;64.20;;;;;;5071502;28;20186;-62
2022/07/14 02:34:04;;;;;;;1.50;1.40;;;19.00;64.40;;;;;;5052117;28;20198;-62
2022/07/14 02:36:30;;;;;;;1.50;1.40;;;19.00;64.70;;;;;;5062696;28;20228;-62
2022/07/14 02:38:57;;;;;;;1.50;1.40;;;19.00;64.30;;;;;;5044222;28;20234;-62
2022/07/14 02:41:22;;;;;;;2.67;1.80;;;19.00;64.50;;;;;;5053832;28;20193;-62
2022/07/14 02:43:49;;;;;;;1.87;1.43;;;19.10;64.50;;;;;;5024465;28;20190;-62
2022/07/14 02:46:15;;;;;;;1.30;1.20;;;19.10;65.00;;;;;;5072400;28;20193;-62
2022/07/14 02:48:41;;;;;;;1.67;1.50;;;19.10;65.30;;;;;;5041670;28;20287;-62
2022/07/14 02:51:08;;;;;;;2.00;1.50;;;19.00;65.20;;;;;;5055862;28;20277;-61
2022/07/14 02:53:35;;;;;;;1.80;1.70;;;19.10;65.00;;;;;;5058040;28;20200;-62
2022/07/14 02:56:02;;;;;;;2.23;1.33;;;19.00;65.00;;;;;;5056026;28;20273;-62
2022/07/14 02:58:28;;;;;;;1.67;1.30;;;19.00;65.10;;;;;;5055683;28;20206;-62
2022/07/14 03:00:53;;;;;;;1.70;1.47;;;19.00;65.30;;;;;;5022471;28;20189;-62
2022/07/14 03:03:23;;;;;;;1.23;1.10;;;19.00;65.20;;;;;;5048441;28;20207;-62
2022/07/14 03:05:48;;;;;;;1.27;1.17;;;19.00;64.60;;;;;;5037042;28;20242;-62
2022/07/14 03:08:14;;;;;;;1.27;1.17;;;19.00;64.30;;;;;;5046080;28;20199;-62
2022/07/14 03:10:41;;;;;;;1.17;1.07;;;18.90;64.70;;;;;;5022803;28;20216;-62
2022/07/14 03:13:07;;;;;;;1.50;1.40;;;18.90;64.80;;;;;;5055486;28;20197;-62
2022/07/14 03:15:33;;;;;;;1.80;1.70;;;18.90;65.00;;;;;;5058353;28;20182;-62
2022/07/14 03:17:59;;;;;;;1.63;1.40;;;18.80;65.20;;;;;;5039992;28;20225;-62
2022/07/14 03:20:24;;;;;;;3.40;1.37;;;18.80;64.60;;;;;;5049533;28;20182;-62
2022/07/14 03:22:50;;;;;;;2.43;1.53;;;18.80;64.90;;;;;;5038250;28;20187;-62
2022/07/14 03:25:16;;;;;;;1.70;1.47;;;18.80;64.70;;;;;;5023956;28;20186;-62
2022/07/14 03:27:41;;;;;;;1.87;1.50;;;18.80;65.00;;;;;;5039634;28;20191;-62
2022/07/14 03:30:08;;;;;;;2.57;1.20;;;18.70;65.10;;;;;;5067637;28;20194;-62
2022/07/14 03:32:34;;;;;;;4.00;1.37;;;18.70;65.10;;;;;;5037937;28;20190;-62
2022/07/14 03:35:03;;;;;;;2.70;1.40;;;18.70;65.20;;;;;;5056040;28;20187;-62
2022/07/14 03:37:29;;;;;;;1.70;1.60;;;18.70;65.10;;;;;;5056936;28;20219;-62
2022/07/14 03:39:55;;;;;;;1.40;1.30;;;18.70;64.20;;;;;;5021623;28;20187;-62
2022/07/14 03:42:21;;;;;;;1.67;1.57;;;18.70;65.10;;;;;;5055402;28;20179;-62
2022/07/14 03:44:48;;;;;;;1.67;1.30;;;18.70;65.20;;;;;;5054746;28;20197;-62
2022/07/14 03:47:14;;;;;;;1.67;1.53;;;18.70;65.20;;;;;;5066067;28;20175;-62
2022/07/14 03:49:40;;;;;;;1.73;1.50;;;18.70;65.20;;;;;;5053877;28;20213;-62
2022/07/14 03:52:06;;;;;;;1.63;1.53;;;18.80;65.80;;;;;;5041623;28;20197;-62
2022/07/14 03:54:32;;;;;;;1.30;1.20;;;18.80;66.10;;;;;;5054037;28;20267;-61
2022/07/14 03:56:57;;;;;;;3.93;1.70;;;18.80;66.30;;;;;;5049926;28;20194;-62
2022/07/14 03:59:23;;;;;;;1.60;1.50;;;18.80;66.30;;;;;;5037297;28;20220;-62
2022/07/14 04:01:48;;;;;;;1.73;1.50;;;18.80;66.30;;;;;;5015805;28;20226;-62
2022/07/14 04:04:14;;;;;;;2.20;1.63;;;18.70;66.80;;;;;;5036280;28;20277;-62
2022/07/14 04:06:40;;;;;;;2.30;1.50;;;18.70;66.00;;;;;;5036550;28;20262;-60
2022/07/14 04:09:06;;;;;;;1.90;1.53;;;18.70;66.20;;;;;;5045730;28;20209;-59
2022/07/14 04:11:32;;;;;;;1.60;1.50;;;18.80;66.20;;;;;;5041135;28;20183;-60
2022/07/14 04:13:58;;;;;;;1.60;1.50;;;18.80;66.40;;;;;;5029662;28;20203;-61
2022/07/14 04:16:23;;;;;;;2.07;1.77;;;18.80;66.60;;;;;;5037187;28;20201;-61
2022/07/14 04:18:49;;;;;;;4.40;1.70;;;18.90;67.10;;;;;;5030455;28;20264;-63
2022/07/14 04:21:15;;;;;;;1.60;1.50;;;18.80;66.60;;;;;;5029764;28;20195;-61
2022/07/14 04:23:40;;;;;;;2.47;2.00;;;18.80;67.00;;;;;;5025900;28;20642;-61
2022/07/14 04:26:06;;;;;;;1.90;1.70;;;18.80;67.40;;;;;;5005853;28;20179;-61
2022/07/14 04:28:32;;;;;;;2.30;1.77;;;18.80;67.30;;;;;;5009246;28;20237;-61
2022/07/14 04:30:58;;;;;;;2.03;1.67;;;18.80;67.40;;;;;;5031083;28;20198;-62
2022/07/14 04:33:24;;;;;;;2.60;1.80;;;18.90;67.40;;;;;;5012377;28;20222;-61
2022/07/14 04:35:50;;;;;;;2.80;1.73;;;18.90;67.60;;;;;;5075733;28;20255;-60
2022/07/14 04:38:15;;;;;;;1.50;1.40;;;18.90;67.60;;;;;;5052721;28;20281;-60
2022/07/14 04:40:49;;;;;;;1.63;1.50;;;19.00;67.50;;;;;;5076387;28;20181;-60
2022/07/14 04:43:16;;;;;;;2.70;1.80;;;19.00;67.30;;;;;;5040347;28;20182;-60
2022/07/14 04:45:42;;;;;;;1.80;1.50;;;19.00;66.60;;;;;;5043673;28;20182;-59
2022/07/14 04:48:08;;;;;;;2.83;1.90;;;19.10;66.80;;;;;;5052721;28;20216;-60
2022/07/14 04:53:18;;;;;;;3.60;1.50;;;19.20;66.80;;;;;;5039433;28;20248;-62
2022/07/14 04:55:43;;;;;;;4.17;1.80;;;19.20;66.80;;;;;;5019755;28;20183;-61
2022/07/14 04:58:09;;;;;;;3.30;2.00;;;19.10;67.40;;;;;;5022788;28;20285;-62
2022/07/14 05:00:35;;;;;;;1.73;1.50;;;19.20;68.30;;;;;;5016238;28;20192;-60
2022/07/14 05:03:01;;;;;;;1.83;1.67;;;19.20;68.00;;;;;;5029283;28;20214;-61
2022/07/14 05:05:26;;;;;;;1.60;1.50;;;19.30;67.90;;;;;;5036356;28;20252;-62
2022/07/14 05:07:52;;;;;;;1.83;1.70;;;19.30;68.10;;;;;;5027540;28;20198;-61
2022/07/14 05:10:18;;;;;;;2.00;1.47;;;19.30;67.90;;;;;;5020515;28;20201;-60
2022/07/14 05:12:43;;;;;;;4.73;1.93;;;19.40;67.90;;;;;;5044928;28;20201;-60
2022/07/14 05:15:09;;;;;;;1.97;1.70;;;19.40;67.60;;;;;;5035866;28;20357;-61
2022/07/14 05:17:35;;;;;;;5.00;1.80;;;19.40;67.40;;;;;;5037586;28;20234;-62
2022/07/14 05:20:01;;;;;;;3.43;1.80;;;19.40;67.10;;;;;;5016929;28;20179;-61
2022/07/14 05:22:27;;;;;;;1.60;1.50;;;19.50;67.30;;;;;;5056252;28;20183;-61
2022/07/14 05:24:53;;;;;;;3.40;1.73;;;19.50;67.50;;;;;;5045750;28;20222;-61
2022/07/14 05:27:18;;;;;;;2.60;1.57;;;19.50;67.00;;;;;;5036239;28;20233;-61
2022/07/14 05:29:44;;;;;;;5.83;1.83;;;19.50;67.00;;;;;;5018593;28;20277;-61
2022/07/14 05:32:10;;;;;;;2.13;1.70;;;19.60;66.10;;;;;;5024281;28;20254;-61
2022/07/14 05:34:43;;;;;;;5.20;1.80;;;19.60;66.10;;;;;;5030036;28;20194;-61
2022/07/14 05:37:10;;;;;;;2.83;1.50;;;19.60;66.80;;;;;;5047084;28;20175;-60
2022/07/14 05:39:37;;;;;;;2.73;1.87;;;19.70;67.10;;;;;;5031527;28;20217;-61
2022/07/14 05:42:02;;;;;;;3.57;1.93;;;19.70;67.30;;;;;;5034763;28;20188;-61
2022/07/14 05:44:28;;;;;;;2.50;1.90;;;19.70;66.90;;;;;;5054674;28;20282;-61
2022/07/14 05:46:54;;;;;;;3.17;1.90;;;19.70;66.60;;;;;;5036276;28;20187;-61
2022/07/14 05:49:19;;;;;;;2.73;2.10;;;19.70;66.60;;;;;;5028520;28;20208;-61
2022/07/14 05:51:45;;;;;;;2.33;1.57;;;19.80;66.60;;;;;;5019679;28;20243;-61
2022/07/14 05:54:10;;;;;;;2.57;1.80;;;19.80;67.50;;;;;;5027778;28;20190;-60
2022/07/14 05:56:36;;;;;;;3.40;2.07;;;19.80;67.80;;;;;;5014015;28;20182;-61
2022/07/14 05:59:02;;;;;;;3.93;2.20;;;19.90;68.00;;;;;;5020212;28;20214;-61
2022/07/14 06:01:27;;;;;;;3.20;1.63;;;19.90;65.60;;;;;;5026583;28;20214;-61
2022/07/14 06:03:59;;;;;;;3.87;2.03;;;19.90;67.00;;;;;;5013802;28;20210;-61
2022/07/14 06:06:25;;;;;;;2.43;1.83;;;19.90;67.20;;;;;;5044990;28;20234;-61
2022/07/14 06:08:50;;;;;;;4.67;1.70;;;19.90;67.30;;;;;;5040722;28;20201;-61
2022/07/14 06:11:16;;;;;;;6.77;2.10;;;20.00;67.90;;;;;;5032557;28;20195;-61
2022/07/14 06:13:42;;;;;;;3.30;2.00;;;20.00;68.60;;;;;;5032818;28;20206;-61
2022/07/14 06:16:09;;;;;;;3.73;1.87;;;20.00;69.30;;;;;;5052203;28;20194;-61
2022/07/14 06:18:35;;;;;;;3.57;2.03;;;20.00;68.40;;;;;;5049766;28;20242;-61
2022/07/14 06:21:01;;;;;;;7.27;2.57;;;20.10;68.30;;;;;;5022536;28;20216;-61
2022/07/14 06:23:26;;;;;;;7.20;2.80;;;20.10;67.40;;;;;;5022770;28;20186;-61
2022/07/14 06:25:52;;;;;;;6.20;2.37;;;20.10;62.50;;;;;;5055586;28;20201;-61
2022/07/14 06:28:18;;;;;;;6.33;4.60;;;20.10;63.50;;;;;;5041519;28;20233;-61
2022/07/14 06:30:44;;;;;;;8.37;3.70;;;20.10;65.50;;;;;;5063655;28;20182;-61
2022/07/14 06:33:10;;;;;;;3.93;2.53;;;20.20;66.40;;;;;;5054961;28;20213;-61
2022/07/14 06:35:40;;;;;;;10.50;2.53;;;20.20;67.80;;;;;;5019530;28;20211;-61
2022/07/14 06:38:06;;;;;;;4.67;2.20;;;20.20;67.20;;;;;;5053818;28;20264;-61
2022/07/14 06:40:32;;;;;;;3.53;1.70;;;20.30;66.70;;;;;;5052954;28;20190;-61
2022/07/14 06:42:58;;;;;;;4.03;1.87;;;20.30;65.20;;;;;;5030513;28;20217;-61
2022/07/14 06:45:23;;;;;;;4.30;2.00;;;20.30;65.70;;;;;;5055903;28;20273;-61
2022/07/14 06:47:49;;;;;;;3.07;1.83;;;20.30;66.90;;;;;;5043244;28;20224;-61
2022/07/14 06:50:15;;;;;;;4.60;2.20;;;20.30;64.90;;;;;;5018672;28;20187;-61
2022/07/14 06:52:41;;;;;;;4.67;2.10;;;20.40;63.70;;;;;;5037357;28;20332;-61
2022/07/14 06:55:08;;;;;;;2.47;1.87;;;20.40;64.90;;;;;;5026096;28;20189;-61
2022/07/14 06:57:33;;;;;;;2.37;2.17;;;20.50;66.20;;;;;;5035462;28;20239;-61
2022/07/14 06:59:59;;;;;;;4.30;1.90;;;20.50;66.80;;;;;;5021190;28;20190;-61
2022/07/14 07:02:25;;;;;;;4.33;2.17;;;20.50;62.50;;;;;;5030925;28;20182;-61
2022/07/14 07:07:45;;;;;;;3.30;2.33;;;20.60;58.80;;;;;;4951357;28;20209;-61
2022/07/14 07:10:11;;;;;;;6.47;1.83;;;20.80;57.40;;;;;;4984674;28;20191;-61
2022/07/14 07:12:37;;;;;;;7.30;1.93;;;20.80;58.30;;;;;;4986378;28;20202;-61
2022/07/14 07:15:04;;;;;;;5.47;1.83;;;20.80;57.90;;;;;;4982044;28;20258;-61
2022/07/14 07:17:30;;;;;;;3.77;1.80;;;21.00;57.20;;;;;;5010378;28;20196;-61
2022/07/14 07:19:55;;;;;;;4.47;2.00;;;21.00;57.70;;;;;;4985299;28;20187;-61
2022/07/14 07:22:21;;;;;;;3.60;2.00;;;21.10;58.20;;;;;;4985309;28;20194;-61
2022/07/14 07:24:47;;;;;;;4.50;2.47;;;21.10;59.90;;;;;;4986543;28;20191;-61
2022/07/14 07:27:12;;;;;;;3.33;1.87;;;21.20;58.40;;;;;;4981786;28;20205;-61
2022/07/14 07:29:38;;;;;;;2.67;1.80;;;21.20;59.70;;;;;;4991901;28;20203;-61
2022/07/14 07:32:04;;;;;;;2.50;1.80;;;21.20;60.10;;;;;;5001441;28;20195;-61
2022/07/14 07:34:29;;;;;;;4.63;1.87;;;21.20;59.40;;;;;;4984196;28;20191;-61
2022/07/14 07:36:55;;;;;;;4.80;2.37;;;21.30;55.90;;;;;;5006047;28;20198;-61
2022/07/14 07:39:21;;;;;;;2.90;1.90;;;21.40;56.00;;;;;;4984361;28;20211;-61
2022/07/14 07:41:46;;;;;;;4.97;2.07;;;21.40;56.00;;;;;;5002097;28;20187;-61
2022/07/14 07:44:12;;;;;;;3.10;1.93;;;21.40;56.90;;;;;;4984718;28;20198;-61
2022/07/14 07:46:38;;;;;;;10.07;2.60;;;21.50;57.20;;;;;;4983496;28;20187;-61
2022/07/14 07:49:03;;;;;;;3.47;1.80;;;21.50;55.80;;;;;;4983876;28;20217;-61
2022/07/14 07:51:29;;;;;;;5.37;2.13;;;21.50;55.80;;;;;;4980448;28;20220;-61
2022/07/14 07:53:54;;;;;;;2.67;1.73;;;21.50;55.70;;;;;;5012261;28;20203;-61
2022/07/14 07:56:20;;;;;;;1.70;1.50;;;21.50;54.80;;;;;;5010962;28;20252;-61
2022/07/14 07:58:46;;;;;;;4.57;1.80;;;21.60;54.90;;;;;;4981910;28;20219;-61
2022/07/14 08:01:11;;;;;;;4.33;1.83;;;21.60;54.40;;;;;;5001395;28;20286;-61
2022/07/14 08:03:37;;;;;;;5.93;2.00;;;21.70;56.10;;;;;;5032508;28;20270;-61
2022/07/14 08:06:03;;;;;;;3.33;1.80;;;21.70;57.20;;;;;;5022884;28;20231;-61
2022/07/14 08:08:28;;;;;;;3.03;1.87;;;21.70;58.50;;;;;;5013287;28;20202;-61
2022/07/14 08:10:54;;;;;;;5.73;2.07;;;21.70;59.80;;;;;;5000412;28;20187;-61
2022/07/14 08:13:20;;;;;;;3.53;1.90;;;21.80;62.80;;;;;;5025974;28;20410;-61
2022/07/14 08:15:45;;;;;;;5.30;1.83;;;21.80;64.30;;;;;;5024717;28;20281;-61
2022/07/14 08:18:11;;;;;;;3.83;1.90;;;21.80;57.20;;;;;;4997162;28;20325;-61
2022/07/14 08:20:37;;;;;;;2.17;1.97;;;21.80;56.80;;;;;;4999240;28;20183;-61
2022/07/14 08:23:03;;;;;;;4.33;1.90;;;21.80;58.30;;;;;;5016067;28;20191;-60
2022/07/14 08:25:29;;;;;;;2.80;1.90;;;21.90;59.10;;;;;;5000328;28;20186;-61
2022/07/14 08:27:55;;;;;;;4.37;1.90;;;21.90;57.30;;;;;;5028703;28;20206;-61
2022/07/14 08:30:21;;;;;;;3.87;1.63;;;22.00;56.60;;;;;;5012915;28;20199;-61
2022/07/14 08:32:51;;;;;;;5.50;1.90;;;22.10;55.70;;;;;;5007620;28;20195;-61
2022/07/14 08:35:19;;;;;;;5.67;1.80;;;22.20;54.70;;;;;;5004539;28;20290;-61
2022/07/14 08:37:46;;;;;;;3.10;1.90;;;22.40;54.90;;;;;;5023465;28;20234;-61
2022/07/14 08:40:18;;;;;;;3.10;2.10;;;22.50;54.90;;;;;;5008435;28;20214;-61
2022/07/14 08:42:46;;;;;;;2.43;1.90;;;22.50;53.70;;;;;;5018975;28;20218;-61
2022/07/14 08:45:14;;;;;;;2.93;1.70;;;22.70;54.10;;;;;;5001181;28;20195;-61
2022/07/14 08:47:41;;;;;;;5.30;2.20;;;22.80;53.00;;;;;;5031054;28;20191;-61
2022/07/14 08:50:09;;;;;;;5.43;2.13;;;22.90;51.80;;;;;;5032715;28;20210;-61
2022/07/14 08:52:36;;;;;;;7.43;1.73;;;23.00;52.40;;;;;;5024300;28;20268;-61
2022/07/14 08:55:06;;;;;;;2.17;1.57;;;23.00;52.80;;;;;;5015450;28;20203;-61
2022/07/14 08:57:32;;;;;;;4.40;1.60;;;23.00;51.40;;;;;;5022482;28;20187;-61
2022/07/14 08:59:57;;;;;;;3.13;1.87;;;23.10;51.80;;;;;;5032251;28;20222;-61
2022/07/14 09:02:23;;;;;;;3.93;1.80;;;23.10;54.20;;;;;;5023554;28;20211;-61
2022/07/14 09:04:49;;;;;;;5.20;1.97;;;23.20;50.20;;;;;;5012464;28;20231;-61
2022/07/14 09:07:33;;;;;;;3.03;2.00;;;23.20;51.20;;;;;;4982163;28;20190;-61
2022/07/14 09:10:12;;;;;;;3.10;1.90;;;23.30;50.80;;;;;;5014805;28;20213;-61
2022/07/14 09:12:39;;;;;;;3.30;1.90;;;23.30;51.20;;;;;;5025590;28;20206;-61
2022/07/14 09:17:56;;;;;;;6.10;1.90;;;23.50;50.90;;;;;;5028632;28;20356;-61
2022/07/14 09:20:24;;;;;;;3.70;2.00;;;23.50;54.40;;;;;;5015475;28;20194;-61
2022/07/14 09:22:58;;;;;;;3.67;2.30;;;23.50;51.70;;;;;;5014966;28;20241;-61
2022/07/14 09:25:26;;;;;;;6.00;2.30;;;23.50;52.60;;;;;;5018522;28;20324;-61
2022/07/14 09:27:53;;;;;;;1.90;1.70;;;23.60;53.60;;;;;;4999044;28;20198;-61
2022/07/14 09:30:19;;;;;;;2.60;1.80;;;23.50;53.30;;;;;;4998307;28;20206;-61
2022/07/14 09:32:55;;;;;;;2.97;2.03;;;23.60;52.60;;;;;;4998776;28;20199;-61
2022/07/14 09:35:41;;;;;;;2.90;1.83;;;23.60;54.80;;;;;;5016047;28;20474;-61
2022/07/14 09:38:18;;;;;;;2.63;1.80;;;23.60;52.10;;;;;;4998830;28;20233;-61
2022/07/14 09:40:45;;;;;;;1.70;1.60;;;23.70;51.80;;;;;;4992137;28;20202;-61
2022/07/14 09:43:14;;;;;;;3.33;1.80;;;23.70;53.00;;;;;;4987228;28;20256;-61
2022/07/14 09:45:50;;;;;;;5.67;1.90;;;23.80;53.00;;;;;;5013723;28;20192;-61
2022/07/14 09:48:22;;;;;;;6.53;2.10;;;23.80;52.70;;;;;;5018058;28;20194;-61
2022/07/14 09:50:57;;;;;;;3.33;1.57;;;23.90;50.90;;;;;;5016367;28;20191;-60
2022/07/14 09:53:26;;;;;;;2.43;1.53;;;24.00;49.20;;;;;;5005605;28;20198;-61
2022/07/14 09:56:06;;;;;;;1.60;1.40;;;24.00;50.00;;;;;;5000522;28;20723;-61
2022/07/14 09:58:54;;;;;;;1.80;1.70;;;24.10;47.70;;;;;;5005384;28;20217;-61
2022/07/14 10:01:23;;;;;;;3.07;2.00;;;24.20;47.90;;;;;;5048140;28;20188;-61
2022/07/14 10:03:51;;;;;;;1.93;1.50;;;24.20;46.90;;;;;;5008139;28;20190;-61
2022/07/14 10:06:18;;;;;;;5.23;1.47;;;24.20;45.40;;;;;;5040794;28;20256;-61
2022/07/14 10:08:53;;;;;;;1.77;1.43;;;24.30;42.90;;;;;;5047367;28;20190;-61
2022/07/14 10:11:19;;;;;;;1.43;1.33;;;24.50;44.70;;;;;;5061138;28;20239;-62
2022/07/14 10:13:45;;;;;;;2.83;1.83;;;24.40;44.90;;;;;;5048080;28;20190;-61
2022/07/14 10:16:12;;;;;;;4.63;1.83;;;24.50;46.10;;;;;;5058295;28;20562;-61
2022/07/14 10:18:42;;;;;;;2.00;1.57;;;24.50;47.70;;;;;;5072831;28;20214;-61
2022/07/14 10:21:09;;;;;;;2.03;1.83;;;24.60;52.50;;;;;;5030963;28;20202;-61
2022/07/14 10:23:37;;;;;;;1.93;1.50;;;24.60;51.70;;;;;;5071089;28;20189;-62
2022/07/14 10:26:02;;;;;;;4.23;1.83;;;24.60;50.90;;;;;;5043692;28;20204;-62
2022/07/14 10:28:28;;;;;;;3.13;1.90;;;24.70;49.30;;;;;;5039475;28;20191;-62
2022/07/14 10:31:15;;;;;;;3.60;2.20;;;24.70;48.50;;;;;;5044790;28;20205;-61
2022/07/14 10:34:02;;;;;;;3.40;1.67;;;24.70;49.20;;;;;;5055747;28;20190;-61
2022/07/14 10:36:43;;;;;;;1.93;1.50;;;24.70;53.80;;;;;;5066369;28;20189;-61
2022/07/14 10:39:48;;;;;;;2.87;1.70;;;24.70;50.60;;;;;;5047075;28;20198;-64
2022/07/14 10:42:36;;;;;;;2.10;1.87;;;24.80;52.00;;;;;;5051636;28;20214;-61
2022/07/14 10:45:03;;;;;;;2.27;1.90;;;24.80;55.70;;;;;;5065253;28;20224;-60
2022/07/14 10:47:50;;;;;;;4.30;1.80;;;24.80;59.10;;;;;;5043016;28;20228;-61
2022/07/14 10:50:24;;;;;;;3.63;1.57;;;24.80;55.70;;;;;;5059708;28;20186;-61
2022/07/14 10:53:00;;;;;;;2.00;1.80;;;24.80;51.50;;;;;;5053643;28;20217;-60
2022/07/14 10:55:29;;;;;;;3.13;1.70;;;24.80;52.10;;;;;;5051661;28;20182;-60
2022/07/14 10:58:01;;;;;;;2.37;2.17;;;24.90;56.80;;;;;;5055284;28;20228;-61
2022/07/14 11:00:47;;;;;;;2.83;2.03;;;24.80;58.20;;;;;;5057909;28;20187;-60
2022/07/14 11:03:19;;;;;;;2.43;1.97;;;24.80;58.60;;;;;;5062577;28;20178;-60
2022/07/14 11:06:09;;;;;;;2.63;1.90;;;24.80;59.40;;;;;;5061168;28;20225;-61
2022/07/14 11:08:40;;;;;;;4.77;1.93;;;24.80;60.80;;;;;;5047689;28;20182;-61
2022/07/14 11:11:25;;;;;;;3.87;2.07;;;24.70;61.00;;;;;;5068460;28;20190;-61
2022/07/14 11:13:59;;;;;;;2.93;2.00;;;24.70;62.70;;;;;;5048859;28;20201;-61
2022/07/14 11:16:47;;;;;;;5.30;1.87;;;24.70;62.90;;;;;;5040522;28;20197;-61
2022/07/14 11:19:35;;;;;;;3.83;2.13;;;24.70;62.50;;;;;;5043001;28;20199;-61
2022/07/14 11:22:12;;;;;;;3.50;1.90;;;24.60;63.40;;;;;;5048573;28;20186;-61
2022/07/14 11:24:49;;;;;;;2.73;1.90;;;24.60;63.70;;;;;;5036109;28;20205;-60
2022/07/14 11:27:38;;;;;;;2.30;1.87;;;24.50;63.80;;;;;;5032248;28;20191;-61
2022/07/14 11:30:30;;;;;;;3.00;1.70;;;24.60;63.00;;;;;;5054659;28;20230;-61
2022/07/14 11:32:57;;;;;;;3.03;1.90;;;24.60;64.00;;;;;;5053754;28;20186;-60
2022/07/14 11:38:38;;;;;;;3.30;2.00;;;24.70;62.10;;;;;;5054861;28;20216;-60
2022/07/14 11:41:09;;;;;;;4.23;2.27;;;24.80;63.00;;;;;;5035312;28;20190;-61
2022/07/14 11:43:43;;;;;;;3.27;1.80;;;24.80;63.40;;;;;;5036082;28;20201;-61
2022/07/14 11:46:10;;;;;;;5.43;2.47;;;24.80;59.80;;;;;;5042440;28;20187;-60
2022/07/14 11:48:39;;;;;;;3.80;2.20;;;24.90;59.50;;;;;;5050734;28;20210;-61
2022/07/14 11:51:06;;;;;;;2.63;1.90;;;25.00;59.40;;;;;;5057785;28;20193;-61
2022/07/14 11:53:33;;;;;;;3.97;2.33;;;25.10;55.30;;;;;;5048808;28;20179;-61
2022/07/14 11:56:03;;;;;;;4.53;2.30;;;25.30;57.70;;;;;;5073064;28;20193;-60
2022/07/14 11:58:30;;;;;;;2.57;2.07;;;25.60;54.60;;;;;;5056158;28;20201;-61
2022/07/14 12:01:01;;;;;;;2.63;1.97;;;25.70;53.80;;;;;;5051772;28;20183;-61
2022/07/14 12:03:27;;;;;;;2.53;2.20;;;25.90;51.20;;;;;;5036320;28;20192;-61
2022/07/14 12:05:55;;;;;;;2.00;1.90;;;26.00;52.30;;;;;;5053177;28;20449;-61
2022/07/14 12:08:27;;;;;;;4.87;2.60;;;26.10;55.40;;;;;;5045330;28;20269;-64
2022/07/14 12:10:54;;;;;;;3.40;2.27;;;26.20;55.70;;;;;;5037929;28;20221;-60
2022/07/14 12:13:20;;;;;;;4.13;2.20;;;26.20;54.30;;;;;;5054676;28;20217;-59
2022/07/14 12:15:49;;;;;;;2.37;2.17;;;26.20;53.70;;;;;;5033361;28;20323;-58
2022/07/14 12:18:15;;;;;;;3.03;2.23;;;26.20;53.80;;;;;;5066875;28;20206;-62
2022/07/14 12:20:44;;;;;;;2.67;1.70;;;26.40;55.10;;;;;;5028088;28;20700;-58
2022/07/14 12:23:11;;;;;;;1.93;1.73;;;26.70;49.80;;;;;;5053465;28;20240;-60
2022/07/14 12:25:40;;;;;;;4.10;1.80;;;26.80;52.20;;;;;;5033776;28;20186;-58
2022/07/14 12:28:11;;;;;;;1.57;1.47;;;27.00;51.00;;;;;;5050280;28;20187;-58
2022/07/14 12:30:45;;;;;;;1.70;1.60;;;27.00;51.10;;;;;;5066929;28;20259;-60
2022/07/14 12:33:13;;;;;;;3.23;1.60;;;27.10;52.20;;;;;;5074132;28;20193;-59
2022/07/14 12:35:41;;;;;;;4.07;1.97;;;27.00;54.20;;;;;;5051460;28;20221;-59
2022/07/14 12:38:08;;;;;;;3.20;1.77;;;27.00;53.70;;;;;;5038924;28;20214;-59
2022/07/14 12:40:34;;;;;;;3.33;2.20;;;27.00;54.80;;;;;;5041049;28;20265;-59
2022/07/14 12:43:00;;;;;;;2.27;2.07;;;27.10;52.40;;;;;;5050196;28;20194;-63
2022/07/14 12:45:26;;;;;;;2.67;1.70;;;27.40;54.30;;;;;;5037033;28;20182;-62
2022/07/14 12:48:00;;;;;;;3.93;1.90;;;27.70;53.40;;;;;;5053938;28;20231;-63
2022/07/14 12:50:28;;;;;;;4.23;2.40;;;27.90;54.90;;;;;;5067515;28;20219;-58
2022/07/14 12:52:56;;;;;;;3.00;2.10;;;28.30;53.20;;;;;;5054598;28;20190;-58
2022/07/14 12:55:36;;;;;;;3.93;2.10;;;28.80;48.30;;;;;;5050950;28;20186;-57
2022/07/14 12:58:04;;;;;;;3.33;1.70;;;29.30;46.70;;;;;;5049858;28;20202;-58
2022/07/14 13:00:31;;;;;;;2.23;1.73;;;29.60;48.50;;;;;;5040778;28;20191;-58
2022/07/14 13:03:23;;;;;;;2.97;2.03;;;29.80;48.80;;;;;;5041286;28;20264;-58
2022/07/14 13:05:56;;;;;;;1.80;1.70;;;29.90;47.50;;;;;;5042705;28;20226;-59